createdAt,value
2019-02-17T00:00:25.622Z,6.1
2019-02-17T00:10:29.037Z,6
2019-02-17T00:20:32.429Z,5.9
2019-02-17T00:30:35.843Z,5.8
2019-02-17T00:40:39.261Z,5.8
2019-02-17T00:50:42.683Z,5.7
2019-02-17T01:00:46.084Z,5.7
2019-02-17T01:10:49.508Z,5.6
2019-02-17T01:20:52.960Z,5.5
2019-02-17T01:41:04.746Z,5.4
2019-02-17T01:51:08.162Z,5.3
2019-02-17T02:01:11.588Z,5.2
2019-02-17T02:11:15.020Z,5.2
2019-02-17T02:21:18.475Z,5.1
2019-02-17T02:31:21.910Z,5.2
2019-02-17T02:41:34.084Z,5
2019-02-17T02:51:38.729Z,4.9
2019-02-17T03:01:42.185Z,4.8
2019-02-17T03:11:45.624Z,4.8
2019-02-17T03:21:49.036Z,4.8
2019-02-17T03:31:52.467Z,4.7
2019-02-17T03:41:56.978Z,4.6
2019-02-17T03:52:00.447Z,4.6
2019-02-17T04:02:03.905Z,4.5
2019-02-17T04:12:07.365Z,4.5
2019-02-17T04:22:10.806Z,4.4
2019-02-17T04:32:14.241Z,4.4
2019-02-17T04:42:17.750Z,4.3
2019-02-17T04:52:21.184Z,4.2
2019-02-17T05:02:24.606Z,4.2
2019-02-17T05:12:28.070Z,4.2
2019-02-17T05:22:31.520Z,4
2019-02-17T05:32:34.948Z,4.1
2019-02-17T05:42:38.404Z,4
2019-02-17T05:52:41.833Z,3.9
2019-02-17T06:02:45.251Z,3.9
2019-02-17T06:12:48.667Z,3.9
2019-02-17T06:22:52.069Z,3.7
2019-02-17T06:32:55.523Z,3.8
2019-02-17T06:42:59.030Z,3.7
2019-02-17T06:53:02.476Z,3.6
2019-02-17T07:03:05.910Z,3.6
2019-02-17T07:13:09.385Z,3.5
2019-02-17T07:23:15.091Z,3.6
2019-02-17T07:33:18.913Z,4.5
2019-02-17T07:43:22.339Z,5.7
2019-02-17T07:53:25.747Z,6.3
2019-02-17T08:03:29.175Z,6.9
2019-02-17T08:13:32.618Z,7.8
2019-02-17T08:23:36.027Z,8.4
2019-02-17T08:33:39.484Z,9
2019-02-17T08:43:42.919Z,9.7
2019-02-17T08:53:46.390Z,10.4
2019-02-17T09:03:49.823Z,11
2019-02-17T09:13:53.267Z,11.3
2019-02-17T09:23:56.702Z,11.4
2019-02-17T09:34:00.149Z,11.4
2019-02-17T09:44:03.578Z,11.5
2019-02-17T09:54:07.040Z,11.7
2019-02-17T10:04:10.467Z,11.8
2019-02-17T10:14:13.874Z,12.2
2019-02-17T10:24:17.312Z,12.4
2019-02-17T10:34:20.768Z,12.6
2019-02-17T10:44:24.238Z,12.4
2019-02-17T10:54:27.691Z,12.3
2019-02-17T11:04:31.139Z,12.4
2019-02-17T11:14:34.541Z,12.4
2019-02-17T11:24:37.946Z,12.3
2019-02-17T11:34:41.367Z,12
2019-02-17T11:44:44.825Z,12.3
2019-02-17T11:54:48.263Z,12.5
2019-02-17T12:04:51.683Z,12.7
2019-02-17T12:14:55.114Z,12.6
2019-02-17T12:24:58.555Z,12.8
2019-02-17T12:35:01.981Z,12.7
2019-02-17T12:45:05.427Z,12.8
2019-02-17T12:55:08.842Z,12.8
2019-02-17T13:05:12.268Z,12.9
2019-02-17T13:15:15.677Z,13.2
2019-02-17T13:25:19.091Z,13.5
2019-02-17T13:35:22.516Z,13.5
2019-02-17T13:45:26.068Z,13.6
2019-02-17T13:55:29.546Z,13.9
2019-02-17T14:05:32.993Z,13.9
2019-02-17T14:15:36.522Z,14.1
2019-02-17T14:25:39.950Z,14
2019-02-17T14:35:43.368Z,14.1
2019-02-17T14:45:46.822Z,14.2
2019-02-17T14:55:50.264Z,14.5
2019-02-17T15:05:53.840Z,14.3
2019-02-17T15:15:57.294Z,14.3
2019-02-17T15:26:00.688Z,14.3
2019-02-17T15:36:04.147Z,14.3
2019-02-17T15:46:07.583Z,14.2
2019-02-17T15:56:11.039Z,14.1
2019-02-17T16:06:14.498Z,14
2019-02-17T16:16:17.951Z,13.9
2019-02-17T16:26:21.337Z,13.8
2019-02-17T16:36:24.783Z,13.7
2019-02-17T16:46:28.241Z,13.6
2019-02-17T16:56:31.670Z,13.5
2019-02-17T17:06:35.114Z,13.1
2019-02-17T17:16:38.572Z,12.8
2019-02-17T17:26:42.004Z,12.4
2019-02-17T17:36:45.482Z,12.1
2019-02-17T17:46:48.934Z,11.8
2019-02-17T17:56:52.391Z,11.6
2019-02-17T18:06:57.093Z,11.2
2019-02-17T18:17:00.657Z,10.9
2019-02-17T18:27:04.086Z,10.7
2019-02-17T18:37:07.500Z,10.5
2019-02-17T18:47:10.936Z,10.3
2019-02-17T18:57:14.379Z,10.1
2019-02-17T19:07:17.825Z,9.9
2019-02-17T19:17:21.276Z,9.7
2019-02-17T19:27:24.690Z,9.6
2019-02-17T19:37:28.103Z,9.4
2019-02-17T19:47:31.566Z,9.3
2019-02-17T19:57:34.993Z,9
2019-02-17T20:07:38.443Z,8.9
2019-02-17T20:17:41.868Z,8.8
2019-02-17T20:27:45.325Z,8.5
2019-02-17T20:37:48.755Z,8.5
2019-02-17T20:47:52.175Z,8.3
2019-02-17T20:57:55.629Z,8.1
2019-02-17T21:07:59.067Z,8.1
2019-02-17T21:18:02.472Z,8.1
2019-02-17T21:28:05.903Z,8
2019-02-17T21:38:09.322Z,7.8
2019-02-17T21:48:12.789Z,7.8
2019-02-17T21:58:16.229Z,7.6
2019-02-17T22:08:19.662Z,7.5
2019-02-17T22:18:24.158Z,7.4
2019-02-17T22:28:27.605Z,7.3
2019-02-17T22:38:31.129Z,7.2
2019-02-17T22:48:34.569Z,7.1
2019-02-17T22:58:38.014Z,6.9
2019-02-17T23:08:41.446Z,6.9
2019-02-17T23:18:44.884Z,6.7
2019-02-17T23:28:48.341Z,6.7
2019-02-17T23:38:51.748Z,6.6
2019-02-17T23:48:55.136Z,6.4
2019-02-17T23:58:58.608Z,6.4
